sensor_id;sensor_type;location;lat;lon;timestamp;temperature;humidity
31309;DHT22;17936;52.446;10.840;2022-12-10T00:00:45;-1.50;99.90
31309;DHT22;17936;52.446;10.840;2022-12-10T00:03:13;-1.50;99.90
31309;DHT22;17936;52.446;10.840;2022-12-10T00:05:38;-1.50;99.90
31309;DHT22;17936;52.446;10.840;2022-12-10T00:08:04;-1.60;99.90
31309;DHT22;17936;52.446;10.840;2022-12-10T00:10:30;-1.50;99.90
31309;DHT22;17936;52.446;10.840;2022-12-10T00:12:55;-1.60;99.90
31309;DHT22;17936;52.446;10.840;2022-12-10T00:15:21;-1.60;99.90
31309;DHT22;17936;52.446;10.840;2022-12-10T00:17:46;-1.50;99.90
31309;DHT22;17936;52.446;10.840;2022-12-10T00:20:12;-1.40;99.90
31309;DHT22;17936;52.446;10.840;2022-12-10T00:22:37;-1.40;99.90
31309;DHT22;17936;52.446;10.840;2022-12-10T00:25:03;-1.40;99.90
31309;DHT22;17936;52.446;10.840;2022-12-10T00:27:30;-1.40;99.90
31309;DHT22;17936;52.446;10.840;2022-12-10T00:29:56;-1.50;99.90
31309;DHT22;17936;52.446;10.840;2022-12-10T00:32:21;-1.40;99.90
31309;DHT22;17936;52.446;10.840;2022-12-10T00:34:47;-1.40;99.90
31309;DHT22;17936;52.446;10.840;2022-12-10T00:37:12;-1.40;99.90
31309;DHT22;17936;52.446;10.840;2022-12-10T00:39:38;-1.50;99.90
31309;DHT22;17936;52.446;10.840;2022-12-10T00:42:03;-1.40;99.90
31309;DHT22;17936;52.446;10.840;2022-12-10T00:44:29;-1.40;99.90
31309;DHT22;17936;52.446;10.840;2022-12-10T00:46:54;-1.40;99.90
31309;DHT22;17936;52.446;10.840;2022-12-10T00:49:20;-1.40;99.90
31309;DHT22;17936;52.446;10.840;2022-12-10T00:51:50;-1.40;99.90
31309;DHT22;17936;52.446;10.840;2022-12-10T00:54:19;-1.40;99.90
31309;DHT22;17936;52.446;10.840;2022-12-10T00:56:44;-1.40;99.90
31309;DHT22;17936;52.446;10.840;2022-12-10T00:59:12;-1.40;99.90
31309;DHT22;17936;52.446;10.840;2022-12-10T01:01:40;-1.40;99.90
31309;DHT22;17936;52.446;10.840;2022-12-10T01:04:09;-1.30;99.90
31309;DHT22;17936;52.446;10.840;2022-12-10T01:06:40;-1.30;99.90
31309;DHT22;17936;52.446;10.840;2022-12-10T01:09:08;-1.30;99.90
31309;DHT22;17936;52.446;10.840;2022-12-10T01:11:37;-1.30;99.90
31309;DHT22;17936;52.446;10.840;2022-12-10T01:14:04;-1.30;99.90
31309;DHT22;17936;52.446;10.840;2022-12-10T01:16:30;-1.30;99.90
31309;DHT22;17936;52.446;10.840;2022-12-10T01:18:57;-1.20;99.90
31309;DHT22;17936;52.446;10.840;2022-12-10T01:21:26;-1.20;99.90
31309;DHT22;17936;52.446;10.840;2022-12-10T01:23:53;-1.20;99.90
31309;DHT22;17936;52.446;10.840;2022-12-10T01:26:21;-1.20;99.90
31309;DHT22;17936;52.446;10.840;2022-12-10T01:28:50;-1.20;99.90
31309;DHT22;17936;52.446;10.840;2022-12-10T01:31:23;-1.10;99.90
31309;DHT22;17936;52.446;10.840;2022-12-10T01:33:48;-1.10;99.90
31309;DHT22;17936;52.446;10.840;2022-12-10T01:36:25;-1.10;99.90
31309;DHT22;17936;52.446;10.840;2022-12-10T01:38:52;-1.20;99.90
31309;DHT22;17936;52.446;10.840;2022-12-10T01:41:23;-1.10;99.90
31309;DHT22;17936;52.446;10.840;2022-12-10T01:43:55;-1.20;99.90
31309;DHT22;17936;52.446;10.840;2022-12-10T01:46:22;-1.20;99.90
31309;DHT22;17936;52.446;10.840;2022-12-10T01:48:49;-1.10;99.90
31309;DHT22;17936;52.446;10.840;2022-12-10T01:51:15;-1.10;99.90
31309;DHT22;17936;52.446;10.840;2022-12-10T01:53:42;-1.10;99.90
31309;DHT22;17936;52.446;10.840;2022-12-10T01:56:10;-1.10;99.90
31309;DHT22;17936;52.446;10.840;2022-12-10T01:58:35;-1.10;99.90
31309;DHT22;17936;52.446;10.840;2022-12-10T02:03:36;-1.10;99.90
31309;DHT22;17936;52.446;10.840;2022-12-10T02:06:15;-1.10;99.90
31309;DHT22;17936;52.446;10.840;2022-12-10T02:09:04;-1.20;99.90
31309;DHT22;17936;52.446;10.840;2022-12-10T02:11:50;-1.10;99.90
31309;DHT22;17936;52.446;10.840;2022-12-10T02:14:29;-1.10;99.90
31309;DHT22;17936;52.446;10.840;2022-12-10T02:17:05;-1.10;99.90
31309;DHT22;17936;52.446;10.840;2022-12-10T02:19:53;-1.10;99.90
31309;DHT22;17936;52.446;10.840;2022-12-10T02:22:21;-1.10;99.90
31309;DHT22;17936;52.446;10.840;2022-12-10T02:24:50;-1.00;99.90
31309;DHT22;17936;52.446;10.840;2022-12-10T02:27:28;-1.10;99.90
31309;DHT22;17936;52.446;10.840;2022-12-10T02:29:55;-1.00;99.90
31309;DHT22;17936;52.446;10.840;2022-12-10T02:32:36;-1.10;99.90
31309;DHT22;17936;52.446;10.840;2022-12-10T02:35:07;-1.00;99.90
31309;DHT22;17936;52.446;10.840;2022-12-10T02:37:38;-1.00;99.90
31309;DHT22;17936;52.446;10.840;2022-12-10T02:40:07;-1.00;99.90
31309;DHT22;17936;52.446;10.840;2022-12-10T02:42:38;-1.00;99.90
31309;DHT22;17936;52.446;10.840;2022-12-10T02:45:05;-1.00;99.90
31309;DHT22;17936;52.446;10.840;2022-12-10T02:47:32;-1.00;99.90
31309;DHT22;17936;52.446;10.840;2022-12-10T02:49:58;-1.00;99.90
31309;DHT22;17936;52.446;10.840;2022-12-10T02:52:24;-1.00;99.90
31309;DHT22;17936;52.446;10.840;2022-12-10T02:54:50;-1.00;99.90
31309;DHT22;17936;52.446;10.840;2022-12-10T02:57:27;-1.00;99.90
31309;DHT22;17936;52.446;10.840;2022-12-10T03:02:59;-1.00;99.90
31309;DHT22;17936;52.446;10.840;2022-12-10T03:08:08;-1.00;99.90
31309;DHT22;17936;52.446;10.840;2022-12-10T03:13:18;-1.00;99.90
31309;DHT22;17936;52.446;10.840;2022-12-10T03:15:47;-1.00;99.90
31309;DHT22;17936;52.446;10.840;2022-12-10T03:18:17;-1.00;99.90
31309;DHT22;17936;52.446;10.840;2022-12-10T03:20:45;-1.10;99.90
31309;DHT22;17936;52.446;10.840;2022-12-10T03:23:15;-1.00;99.90
31309;DHT22;17936;52.446;10.840;2022-12-10T03:25:42;-1.10;99.90
31309;DHT22;17936;52.446;10.840;2022-12-10T03:28:08;-1.00;99.90
31309;DHT22;17936;52.446;10.840;2022-12-10T03:30:36;-1.10;99.90
31309;DHT22;17936;52.446;10.840;2022-12-10T03:33:03;-1.10;99.90
31309;DHT22;17936;52.446;10.840;2022-12-10T03:35:29;-1.10;99.90
31309;DHT22;17936;52.446;10.840;2022-12-10T03:37:56;-1.10;99.90
31309;DHT22;17936;52.446;10.840;2022-12-10T03:40:23;-1.10;99.90
31309;DHT22;17936;52.446;10.840;2022-12-10T03:42:49;-1.10;99.90
31309;DHT22;17936;52.446;10.840;2022-12-10T03:45:15;-1.10;99.90
31309;DHT22;17936;52.446;10.840;2022-12-10T03:47:41;-1.20;99.90
31309;DHT22;17936;52.446;10.840;2022-12-10T03:50:07;-1.20;99.90
31309;DHT22;17936;52.446;10.840;2022-12-10T03:52:33;-1.20;99.90
31309;DHT22;17936;52.446;10.840;2022-12-10T03:54:58;-1.10;99.90
31309;DHT22;17936;52.446;10.840;2022-12-10T03:57:24;-1.20;99.90
31309;DHT22;17936;52.446;10.840;2022-12-10T03:59:49;-1.20;99.90
31309;DHT22;17936;52.446;10.840;2022-12-10T04:02:15;-1.20;99.90
31309;DHT22;17936;52.446;10.840;2022-12-10T04:04:40;-1.10;99.90
31309;DHT22;17936;52.446;10.840;2022-12-10T04:07:06;-1.10;99.90
31309;DHT22;17936;52.446;10.840;2022-12-10T04:09:32;-1.10;99.90
31309;DHT22;17936;52.446;10.840;2022-12-10T04:11:58;-1.10;99.90
31309;DHT22;17936;52.446;10.840;2022-12-10T04:14:25;-1.20;99.90
31309;DHT22;17936;52.446;10.840;2022-12-10T04:17:10;-1.20;99.90
31309;DHT22;17936;52.446;10.840;2022-12-10T04:19:35;-1.20;99.90
31309;DHT22;17936;52.446;10.840;2022-12-10T04:22:01;-1.20;99.90
31309;DHT22;17936;52.446;10.840;2022-12-10T04:24:45;-1.30;99.90
31309;DHT22;17936;52.446;10.840;2022-12-10T04:27:40;-1.20;99.90
31309;DHT22;17936;52.446;10.840;2022-12-10T04:30:07;-1.30;99.90
31309;DHT22;17936;52.446;10.840;2022-12-10T04:32:33;-1.30;99.90
31309;DHT22;17936;52.446;10.840;2022-12-10T04:34:59;-1.30;99.90
31309;DHT22;17936;52.446;10.840;2022-12-10T04:37:25;-1.30;99.90
31309;DHT22;17936;52.446;10.840;2022-12-10T04:39:51;-1.40;99.90
31309;DHT22;17936;52.446;10.840;2022-12-10T04:42:18;-1.40;99.90
31309;DHT22;17936;52.446;10.840;2022-12-10T04:44:44;-1.40;99.90
31309;DHT22;17936;52.446;10.840;2022-12-10T04:47:11;-1.40;99.90
31309;DHT22;17936;52.446;10.840;2022-12-10T04:49:37;-1.30;99.90
31309;DHT22;17936;52.446;10.840;2022-12-10T04:52:04;-1.30;99.90
31309;DHT22;17936;52.446;10.840;2022-12-10T04:54:29;-1.50;99.90
31309;DHT22;17936;52.446;10.840;2022-12-10T04:56:55;-1.40;99.90
31309;DHT22;17936;52.446;10.840;2022-12-10T04:59:21;-1.50;99.90
31309;DHT22;17936;52.446;10.840;2022-12-10T05:01:46;-1.40;99.90
31309;DHT22;17936;52.446;10.840;2022-12-10T05:04:14;-1.40;99.90
31309;DHT22;17936;52.446;10.840;2022-12-10T05:06:40;-1.40;99.90
31309;DHT22;17936;52.446;10.840;2022-12-10T05:09:05;-1.40;99.90
31309;DHT22;17936;52.446;10.840;2022-12-10T05:11:32;-1.40;99.90
31309;DHT22;17936;52.446;10.840;2022-12-10T05:13:59;-1.40;99.90
31309;DHT22;17936;52.446;10.840;2022-12-10T05:16:27;-1.30;99.90
31309;DHT22;17936;52.446;10.840;2022-12-10T05:18:53;-1.30;99.90
31309;DHT22;17936;52.446;10.840;2022-12-10T05:21:20;-1.20;99.90
31309;DHT22;17936;52.446;10.840;2022-12-10T05:23:48;-1.20;99.90
31309;DHT22;17936;52.446;10.840;2022-12-10T05:26:24;-1.20;99.90
31309;DHT22;17936;52.446;10.840;2022-12-10T05:28:53;-1.20;99.90
31309;DHT22;17936;52.446;10.840;2022-12-10T05:31:21;-1.30;99.90
31309;DHT22;17936;52.446;10.840;2022-12-10T05:33:48;-1.30;99.90
31309;DHT22;17936;52.446;10.840;2022-12-10T05:36:16;-1.20;99.90
31309;DHT22;17936;52.446;10.840;2022-12-10T05:38:42;-1.20;99.90
31309;DHT22;17936;52.446;10.840;2022-12-10T05:43:38;-1.20;99.90
31309;DHT22;17936;52.446;10.840;2022-12-10T05:46:06;-1.20;99.90
31309;DHT22;17936;52.446;10.840;2022-12-10T05:48:33;-1.30;99.90
31309;DHT22;17936;52.446;10.840;2022-12-10T05:51:06;-1.20;99.90
31309;DHT22;17936;52.446;10.840;2022-12-10T05:53:32;-1.20;99.90
31309;DHT22;17936;52.446;10.840;2022-12-10T05:56:02;-1.20;99.90
31309;DHT22;17936;52.446;10.840;2022-12-10T05:58:29;-1.20;99.90
31309;DHT22;17936;52.446;10.840;2022-12-10T06:00:56;-1.20;99.90
31309;DHT22;17936;52.446;10.840;2022-12-10T06:03:21;-1.20;99.90
31309;DHT22;17936;52.446;10.840;2022-12-10T06:05:47;-1.20;99.90
31309;DHT22;17936;52.446;10.840;2022-12-10T06:08:12;-1.20;99.90
31309;DHT22;17936;52.446;10.840;2022-12-10T06:10:38;-1.20;99.90
31309;DHT22;17936;52.446;10.840;2022-12-10T06:13:03;-1.20;99.90
31309;DHT22;17936;52.446;10.840;2022-12-10T06:15:30;-1.30;99.90
31309;DHT22;17936;52.446;10.840;2022-12-10T06:17:56;-1.30;99.90
31309;DHT22;17936;52.446;10.840;2022-12-10T06:20:23;-1.30;99.90
31309;DHT22;17936;52.446;10.840;2022-12-10T06:22:48;-1.30;99.90
31309;DHT22;17936;52.446;10.840;2022-12-10T06:25:14;-1.30;99.90
31309;DHT22;17936;52.446;10.840;2022-12-10T06:27:39;-1.30;99.90
31309;DHT22;17936;52.446;10.840;2022-12-10T06:30:05;-1.30;99.90
31309;DHT22;17936;52.446;10.840;2022-12-10T06:32:31;-1.20;99.90
31309;DHT22;17936;52.446;10.840;2022-12-10T06:34:56;-1.30;99.90
31309;DHT22;17936;52.446;10.840;2022-12-10T06:37:22;-1.30;99.90
31309;DHT22;17936;52.446;10.840;2022-12-10T06:39:53;-1.30;99.90
31309;DHT22;17936;52.446;10.840;2022-12-10T06:42:19;-1.30;99.90
31309;DHT22;17936;52.446;10.840;2022-12-10T06:44:45;-1.30;99.90
31309;DHT22;17936;52.446;10.840;2022-12-10T06:47:11;-1.40;99.90
31309;DHT22;17936;52.446;10.840;2022-12-10T06:49:36;-1.40;99.90
31309;DHT22;17936;52.446;10.840;2022-12-10T06:52:03;-1.30;99.90
31309;DHT22;17936;52.446;10.840;2022-12-10T06:54:29;-1.20;99.90
31309;DHT22;17936;52.446;10.840;2022-12-10T06:56:54;-1.30;99.90
31309;DHT22;17936;52.446;10.840;2022-12-10T06:59:20;-1.30;99.90
31309;DHT22;17936;52.446;10.840;2022-12-10T07:01:46;-1.30;99.90
31309;DHT22;17936;52.446;10.840;2022-12-10T07:04:11;-1.20;99.90
31309;DHT22;17936;52.446;10.840;2022-12-10T07:06:37;-1.20;99.90
31309;DHT22;17936;52.446;10.840;2022-12-10T07:09:02;-1.20;99.90
31309;DHT22;17936;52.446;10.840;2022-12-10T07:11:28;-1.30;99.90
31309;DHT22;17936;52.446;10.840;2022-12-10T07:13:56;-1.20;99.90
31309;DHT22;17936;52.446;10.840;2022-12-10T07:16:24;-1.30;99.90
31309;DHT22;17936;52.446;10.840;2022-12-10T07:18:51;-1.30;99.90
31309;DHT22;17936;52.446;10.840;2022-12-10T07:21:20;-1.30;99.90
31309;DHT22;17936;52.446;10.840;2022-12-10T07:23:46;-1.30;99.90
31309;DHT22;17936;52.446;10.840;2022-12-10T07:26:12;-1.20;99.90
31309;DHT22;17936;52.446;10.840;2022-12-10T07:28:38;-1.20;99.90
31309;DHT22;17936;52.446;10.840;2022-12-10T07:31:05;-1.20;99.90
31309;DHT22;17936;52.446;10.840;2022-12-10T07:33:31;-1.30;99.90
31309;DHT22;17936;52.446;10.840;2022-12-10T07:35:56;-1.30;99.90
31309;DHT22;17936;52.446;10.840;2022-12-10T07:38:23;-1.30;99.90
31309;DHT22;17936;52.446;10.840;2022-12-10T07:40:49;-1.30;99.90
31309;DHT22;17936;52.446;10.840;2022-12-10T07:43:15;-1.30;99.90
31309;DHT22;17936;52.446;10.840;2022-12-10T07:45:40;-1.30;99.90
31309;DHT22;17936;52.446;10.840;2022-12-10T07:48:06;-1.20;99.90
31309;DHT22;17936;52.446;10.840;2022-12-10T07:50:33;-1.20;99.90
31309;DHT22;17936;52.446;10.840;2022-12-10T07:52:59;-1.20;99.90
31309;DHT22;17936;52.446;10.840;2022-12-10T07:55:25;-1.20;99.90
31309;DHT22;17936;52.446;10.840;2022-12-10T07:57:50;-1.10;99.90
31309;DHT22;17936;52.446;10.840;2022-12-10T08:00:16;-1.10;99.90
31309;DHT22;17936;52.446;10.840;2022-12-10T08:02:41;-1.00;99.90
31309;DHT22;17936;52.446;10.840;2022-12-10T08:05:07;-1.10;99.90
31309;DHT22;17936;52.446;10.840;2022-12-10T08:07:33;-1.10;99.90
31309;DHT22;17936;52.446;10.840;2022-12-10T08:09:59;-1.20;99.90
31309;DHT22;17936;52.446;10.840;2022-12-10T08:12:24;-1.30;99.90
31309;DHT22;17936;52.446;10.840;2022-12-10T08:14:50;-1.20;99.90
31309;DHT22;17936;52.446;10.840;2022-12-10T08:17:15;-1.20;99.90
31309;DHT22;17936;52.446;10.840;2022-12-10T08:19:41;-1.20;99.90
31309;DHT22;17936;52.446;10.840;2022-12-10T08:22:07;-1.30;99.90
31309;DHT22;17936;52.446;10.840;2022-12-10T08:24:32;-1.20;99.90
31309;DHT22;17936;52.446;10.840;2022-12-10T08:26:58;-1.30;99.90
31309;DHT22;17936;52.446;10.840;2022-12-10T08:29:23;-1.30;99.90
31309;DHT22;17936;52.446;10.840;2022-12-10T08:31:48;-1.30;99.90
31309;DHT22;17936;52.446;10.840;2022-12-10T08:34:16;-1.20;99.90
31309;DHT22;17936;52.446;10.840;2022-12-10T08:36:42;-1.20;99.90
31309;DHT22;17936;52.446;10.840;2022-12-10T08:39:08;-1.30;99.90
31309;DHT22;17936;52.446;10.840;2022-12-10T08:41:35;-1.20;99.90
31309;DHT22;17936;52.446;10.840;2022-12-10T08:44:01;-1.20;99.90
31309;DHT22;17936;52.446;10.840;2022-12-10T08:46:26;-1.10;99.90
31309;DHT22;17936;52.446;10.840;2022-12-10T08:48:54;-1.20;99.90
31309;DHT22;17936;52.446;10.840;2022-12-10T08:51:20;-1.00;99.90
31309;DHT22;17936;52.446;10.840;2022-12-10T08:53:45;-1.10;99.90
31309;DHT22;17936;52.446;10.840;2022-12-10T08:56:11;-1.10;99.90
31309;DHT22;17936;52.446;10.840;2022-12-10T08:58:37;-1.20;99.90
31309;DHT22;17936;52.446;10.840;2022-12-10T09:01:12;-1.20;99.90
31309;DHT22;17936;52.446;10.840;2022-12-10T09:03:38;-1.20;99.90
31309;DHT22;17936;52.446;10.840;2022-12-10T09:06:14;-1.10;99.90
31309;DHT22;17936;52.446;10.840;2022-12-10T09:08:40;-1.10;99.90
31309;DHT22;17936;52.446;10.840;2022-12-10T09:13:33;-1.30;99.90
31309;DHT22;17936;52.446;10.840;2022-12-10T09:15:58;-1.30;99.90
31309;DHT22;17936;52.446;10.840;2022-12-10T09:18:24;-1.20;99.90
31309;DHT22;17936;52.446;10.840;2022-12-10T09:20:49;-1.20;99.90
31309;DHT22;17936;52.446;10.840;2022-12-10T09:23:15;-1.30;99.90
31309;DHT22;17936;52.446;10.840;2022-12-10T09:25:40;-1.30;99.90
31309;DHT22;17936;52.446;10.840;2022-12-10T09:28:08;-1.20;99.90
31309;DHT22;17936;52.446;10.840;2022-12-10T09:30:34;-1.20;99.90
31309;DHT22;17936;52.446;10.840;2022-12-10T09:32:59;-1.20;99.90
31309;DHT22;17936;52.446;10.840;2022-12-10T09:35:25;-1.20;99.90
31309;DHT22;17936;52.446;10.840;2022-12-10T09:37:53;-1.00;99.90
31309;DHT22;17936;52.446;10.840;2022-12-10T09:40:29;-1.10;99.90
31309;DHT22;17936;52.446;10.840;2022-12-10T09:43:03;-1.10;99.90
31309;DHT22;17936;52.446;10.840;2022-12-10T09:46:04;-1.20;99.90
31309;DHT22;17936;52.446;10.840;2022-12-10T09:48:59;-1.20;99.90
31309;DHT22;17936;52.446;10.840;2022-12-10T09:51:33;-1.20;99.90
31309;DHT22;17936;52.446;10.840;2022-12-10T09:54:00;-1.10;99.90
31309;DHT22;17936;52.446;10.840;2022-12-10T09:56:35;-1.10;99.90
31309;DHT22;17936;52.446;10.840;2022-12-10T09:59:11;-1.20;99.90
31309;DHT22;17936;52.446;10.840;2022-12-10T10:01:39;-1.10;99.90
31309;DHT22;17936;52.446;10.840;2022-12-10T10:04:04;-1.10;99.90
31309;DHT22;17936;52.446;10.840;2022-12-10T10:06:30;-1.30;99.90
31309;DHT22;17936;52.446;10.840;2022-12-10T10:08:58;-1.20;99.90
31309;DHT22;17936;52.446;10.840;2022-12-10T10:11:29;-1.30;99.90
31309;DHT22;17936;52.446;10.840;2022-12-10T10:14:08;-1.20;99.90
31309;DHT22;17936;52.446;10.840;2022-12-10T10:16:40;-1.20;99.90
31309;DHT22;17936;52.446;10.840;2022-12-10T10:19:17;-1.20;99.90
31309;DHT22;17936;52.446;10.840;2022-12-10T10:21:45;-1.20;99.90
31309;DHT22;17936;52.446;10.840;2022-12-10T10:24:17;-1.10;99.90
31309;DHT22;17936;52.446;10.840;2022-12-10T10:26:44;-1.00;99.90
31309;DHT22;17936;52.446;10.840;2022-12-10T10:29:13;-1.20;99.90
31309;DHT22;17936;52.446;10.840;2022-12-10T10:31:41;-1.20;99.90
31309;DHT22;17936;52.446;10.840;2022-12-10T10:34:22;-1.10;99.90
31309;DHT22;17936;52.446;10.840;2022-12-10T10:36:56;-1.00;99.90
31309;DHT22;17936;52.446;10.840;2022-12-10T10:39:29;-1.00;99.90
31309;DHT22;17936;52.446;10.840;2022-12-10T10:41:57;-0.90;99.90
31309;DHT22;17936;52.446;10.840;2022-12-10T10:44:33;-1.00;99.90
31309;DHT22;17936;52.446;10.840;2022-12-10T10:46:59;-1.10;99.90
31309;DHT22;17936;52.446;10.840;2022-12-10T10:49:30;-1.10;99.90
31309;DHT22;17936;52.446;10.840;2022-12-10T10:52:04;-1.00;99.90
31309;DHT22;17936;52.446;10.840;2022-12-10T10:57:04;-1.00;99.90
31309;DHT22;17936;52.446;10.840;2022-12-10T10:59:35;-1.00;99.90
31309;DHT22;17936;52.446;10.840;2022-12-10T11:04:52;-1.10;99.90
31309;DHT22;17936;52.446;10.840;2022-12-10T11:09:56;-1.00;99.90
31309;DHT22;17936;52.446;10.840;2022-12-10T11:12:41;-1.00;99.90
31309;DHT22;17936;52.446;10.840;2022-12-10T11:17:49;-1.10;99.90
31309;DHT22;17936;52.446;10.840;2022-12-10T11:20:20;-1.00;99.90
31309;DHT22;17936;52.446;10.840;2022-12-10T11:23:10;-0.90;99.90
31309;DHT22;17936;52.446;10.840;2022-12-10T11:25:53;-1.00;99.90
31309;DHT22;17936;52.446;10.840;2022-12-10T11:28:30;-0.90;99.90
31309;DHT22;17936;52.446;10.840;2022-12-10T11:34:08;-1.00;99.90
31309;DHT22;17936;52.446;10.840;2022-12-10T11:36:53;-1.00;99.90
31309;DHT22;17936;52.446;10.840;2022-12-10T11:42:42;-1.00;99.90
31309;DHT22;17936;52.446;10.840;2022-12-10T11:48:16;-1.20;99.90
31309;DHT22;17936;52.446;10.840;2022-12-10T11:50:50;-1.00;99.90
31309;DHT22;17936;52.446;10.840;2022-12-10T11:53:32;-0.90;99.90
31309;DHT22;17936;52.446;10.840;2022-12-10T11:56:31;-0.80;99.90
31309;DHT22;17936;52.446;10.840;2022-12-10T11:59:09;-0.80;99.90
31309;DHT22;17936;52.446;10.840;2022-12-10T12:13:29;-0.90;99.90
31309;DHT22;17936;52.446;10.840;2022-12-10T12:16:07;-0.70;99.90
31309;DHT22;17936;52.446;10.840;2022-12-10T12:18:46;-0.80;99.90
31309;DHT22;17936;52.446;10.840;2022-12-10T12:21:15;-0.80;99.90
31309;DHT22;17936;52.446;10.840;2022-12-10T12:26:38;-1.00;99.90
31309;DHT22;17936;52.446;10.840;2022-12-10T12:32:21;-0.80;99.90
31309;DHT22;17936;52.446;10.840;2022-12-10T12:35:32;-0.80;99.90
31309;DHT22;17936;52.446;10.840;2022-12-10T12:38:14;-0.90;99.90
31309;DHT22;17936;52.446;10.840;2022-12-10T12:46:04;-0.90;99.90
31309;DHT22;17936;52.446;10.840;2022-12-10T12:48:56;-0.80;99.90
31309;DHT22;17936;52.446;10.840;2022-12-10T12:51:36;-0.80;99.90
31309;DHT22;17936;52.446;10.840;2022-12-10T12:54:04;-0.80;99.90
31309;DHT22;17936;52.446;10.840;2022-12-10T12:59:40;-0.80;99.90
31309;DHT22;17936;52.446;10.840;2022-12-10T13:02:51;-0.70;99.90
31309;DHT22;17936;52.446;10.840;2022-12-10T13:05:26;-0.80;99.90
31309;DHT22;17936;52.446;10.840;2022-12-10T13:10:48;-0.90;99.90
31309;DHT22;17936;52.446;10.840;2022-12-10T13:13:36;-0.80;99.90
31309;DHT22;17936;52.446;10.840;2022-12-10T13:16:34;-0.80;99.90
31309;DHT22;17936;52.446;10.840;2022-12-10T13:32:21;-0.80;99.90
31309;DHT22;17936;52.446;10.840;2022-12-10T13:37:56;-0.90;99.90
31309;DHT22;17936;52.446;10.840;2022-12-10T13:40:37;-0.80;99.90
31309;DHT22;17936;52.446;10.840;2022-12-10T13:48:55;-0.90;99.90
31309;DHT22;17936;52.446;10.840;2022-12-10T13:51:48;-0.70;99.90
31309;DHT22;17936;52.446;10.840;2022-12-10T13:54:47;-0.80;99.90
31309;DHT22;17936;52.446;10.840;2022-12-10T13:57:30;-0.90;99.90
31309;DHT22;17936;52.446;10.840;2022-12-10T14:02:53;-0.90;99.90
31309;DHT22;17936;52.446;10.840;2022-12-10T14:05:39;-1.00;99.90
31309;DHT22;17936;52.446;10.840;2022-12-10T14:08:13;-1.10;99.90
31309;DHT22;17936;52.446;10.840;2022-12-10T14:10:41;-1.00;99.90
31309;DHT22;17936;52.446;10.840;2022-12-10T14:13:10;-1.00;99.90
31309;DHT22;17936;52.446;10.840;2022-12-10T14:15:37;-1.00;99.90
31309;DHT22;17936;52.446;10.840;2022-12-10T14:18:10;-1.20;99.90
31309;DHT22;17936;52.446;10.840;2022-12-10T14:20:41;-1.10;99.90
31309;DHT22;17936;52.446;10.840;2022-12-10T14:23:25;-1.10;99.90
31309;DHT22;17936;52.446;10.840;2022-12-10T14:26:05;-1.00;99.90
31309;DHT22;17936;52.446;10.840;2022-12-10T14:28:31;-1.10;99.90
31309;DHT22;17936;52.446;10.840;2022-12-10T14:30:58;-1.10;99.90
31309;DHT22;17936;52.446;10.840;2022-12-10T14:33:24;-1.10;99.90
31309;DHT22;17936;52.446;10.840;2022-12-10T14:35:51;-1.20;99.90
31309;DHT22;17936;52.446;10.840;2022-12-10T14:38:21;-1.20;99.90
31309;DHT22;17936;52.446;10.840;2022-12-10T14:40:48;-1.10;99.90
31309;DHT22;17936;52.446;10.840;2022-12-10T14:43:27;-1.10;99.90
31309;DHT22;17936;52.446;10.840;2022-12-10T14:45:58;-1.00;99.90
31309;DHT22;17936;52.446;10.840;2022-12-10T14:48:24;-1.10;99.90
31309;DHT22;17936;52.446;10.840;2022-12-10T14:50:50;-1.10;99.90
31309;DHT22;17936;52.446;10.840;2022-12-10T14:53:24;-1.00;99.90
31309;DHT22;17936;52.446;10.840;2022-12-10T14:55:56;-1.10;99.90
31309;DHT22;17936;52.446;10.840;2022-12-10T14:58:51;-1.10;99.90
31309;DHT22;17936;52.446;10.840;2022-12-10T15:01:29;-1.10;99.90
31309;DHT22;17936;52.446;10.840;2022-12-10T15:03:56;-1.10;99.90
31309;DHT22;17936;52.446;10.840;2022-12-10T15:06:25;-1.10;99.90
31309;DHT22;17936;52.446;10.840;2022-12-10T15:08:54;-1.00;99.90
31309;DHT22;17936;52.446;10.840;2022-12-10T15:11:21;-1.00;99.90
31309;DHT22;17936;52.446;10.840;2022-12-10T15:13:49;-1.10;99.90
31309;DHT22;17936;52.446;10.840;2022-12-10T15:16:27;-1.10;99.90
31309;DHT22;17936;52.446;10.840;2022-12-10T15:18:54;-1.00;99.90
31309;DHT22;17936;52.446;10.840;2022-12-10T15:21:23;-1.10;99.90
31309;DHT22;17936;52.446;10.840;2022-12-10T15:23:49;-1.00;99.90
31309;DHT22;17936;52.446;10.840;2022-12-10T15:26:28;-1.00;99.90
31309;DHT22;17936;52.446;10.840;2022-12-10T15:31:55;-1.00;99.90
31309;DHT22;17936;52.446;10.840;2022-12-10T15:34:21;-1.00;99.90
31309;DHT22;17936;52.446;10.840;2022-12-10T15:36:51;-1.10;99.90
31309;DHT22;17936;52.446;10.840;2022-12-10T15:39:28;-1.10;99.90
31309;DHT22;17936;52.446;10.840;2022-12-10T15:41:59;-1.10;99.90
31309;DHT22;17936;52.446;10.840;2022-12-10T15:44:40;-1.30;99.90
31309;DHT22;17936;52.446;10.840;2022-12-10T15:47:19;-1.20;99.90
31309;DHT22;17936;52.446;10.840;2022-12-10T15:49:45;-1.30;99.90
31309;DHT22;17936;52.446;10.840;2022-12-10T15:52:13;-1.20;99.90
31309;DHT22;17936;52.446;10.840;2022-12-10T15:54:41;-1.20;99.90
31309;DHT22;17936;52.446;10.840;2022-12-10T15:57:24;-1.10;99.90
31309;DHT22;17936;52.446;10.840;2022-12-10T15:59:55;-1.10;99.90
31309;DHT22;17936;52.446;10.840;2022-12-10T16:02:58;-1.10;99.90
31309;DHT22;17936;52.446;10.840;2022-12-10T16:05:27;-1.10;99.90
31309;DHT22;17936;52.446;10.840;2022-12-10T16:07:55;-1.00;99.90
31309;DHT22;17936;52.446;10.840;2022-12-10T16:10:23;-1.00;99.90
31309;DHT22;17936;52.446;10.840;2022-12-10T16:12:59;-1.00;99.90
31309;DHT22;17936;52.446;10.840;2022-12-10T16:15:28;-1.10;99.90
31309;DHT22;17936;52.446;10.840;2022-12-10T16:17:54;-1.30;99.90
31309;DHT22;17936;52.446;10.840;2022-12-10T16:20:26;-1.20;99.90
31309;DHT22;17936;52.446;10.840;2022-12-10T16:22:53;-1.10;99.90
31309;DHT22;17936;52.446;10.840;2022-12-10T16:25:18;-1.20;99.90
31309;DHT22;17936;52.446;10.840;2022-12-10T16:27:45;-1.30;99.90
31309;DHT22;17936;52.446;10.840;2022-12-10T16:30:20;-1.10;99.90
31309;DHT22;17936;52.446;10.840;2022-12-10T16:32:46;-1.20;99.90
31309;DHT22;17936;52.446;10.840;2022-12-10T16:35:12;-1.00;99.90
31309;DHT22;17936;52.446;10.840;2022-12-10T16:37:42;-1.00;99.90
31309;DHT22;17936;52.446;10.840;2022-12-10T16:40:09;-1.00;99.90
31309;DHT22;17936;52.446;10.840;2022-12-10T16:42:35;-1.20;99.90
31309;DHT22;17936;52.446;10.840;2022-12-10T16:45:00;-1.20;99.90
31309;DHT22;17936;52.446;10.840;2022-12-10T16:47:26;-1.20;99.90
31309;DHT22;17936;52.446;10.840;2022-12-10T16:49:51;-1.20;99.90
31309;DHT22;17936;52.446;10.840;2022-12-10T16:52:17;-1.20;99.90
31309;DHT22;17936;52.446;10.840;2022-12-10T16:54:43;-1.30;99.90
31309;DHT22;17936;52.446;10.840;2022-12-10T16:57:12;-1.40;99.90
31309;DHT22;17936;52.446;10.840;2022-12-10T16:59:37;-1.30;99.90
31309;DHT22;17936;52.446;10.840;2022-12-10T17:02:11;-1.50;99.90
31309;DHT22;17936;52.446;10.840;2022-12-10T17:04:37;-1.40;99.90